sensor_id;sensor_type;location;lat;lon;timestamp;temperature;humidity
6788;DHT22;3431;47.966;10.268;2023-05-19T00:00:10;9.20;99.90
6788;DHT22;3431;47.966;10.268;2023-05-19T00:00:35;9.20;99.90
6788;DHT22;3431;47.966;10.268;2023-05-19T00:00:58;9.20;99.90
6788;DHT22;3431;47.966;10.268;2023-05-19T00:01:21;9.20;99.90
6788;DHT22;3431;47.966;10.268;2023-05-19T00:01:43;9.20;99.90
6788;DHT22;3431;47.966;10.268;2023-05-19T00:02:06;9.20;99.90
6788;DHT22;3431;47.966;10.268;2023-05-19T00:02:29;9.20;99.90
6788;DHT22;3431;47.966;10.268;2023-05-19T00:02:53;9.30;99.90
6788;DHT22;3431;47.966;10.268;2023-05-19T00:03:16;9.20;99.90
6788;DHT22;3431;47.966;10.268;2023-05-19T00:03:49;9.30;99.90
6788;DHT22;3431;47.966;10.268;2023-05-19T00:04:14;9.20;99.90
6788;DHT22;3431;47.966;10.268;2023-05-19T00:04:37;9.20;99.90
6788;DHT22;3431;47.966;10.268;2023-05-19T00:05:01;9.20;99.90
6788;DHT22;3431;47.966;10.268;2023-05-19T00:05:23;9.20;99.90
6788;DHT22;3431;47.966;10.268;2023-05-19T00:05:47;9.20;99.90
6788;DHT22;3431;47.966;10.268;2023-05-19T00:06:09;9.20;99.90
6788;DHT22;3431;47.966;10.268;2023-05-19T00:06:31;9.20;99.90
6788;DHT22;3431;47.966;10.268;2023-05-19T00:06:53;9.20;99.90
6788;DHT22;3431;47.966;10.268;2023-05-19T00:07:17;9.20;99.90
6788;DHT22;3431;47.966;10.268;2023-05-19T00:07:40;9.10;99.90
6788;DHT22;3431;47.966;10.268;2023-05-19T00:08:04;9.10;99.90
6788;DHT22;3431;47.966;10.268;2023-05-19T00:08:29;9.10;99.90
6788;DHT22;3431;47.966;10.268;2023-05-19T00:08:56;9.10;99.90
6788;DHT22;3431;47.966;10.268;2023-05-19T00:09:18;9.10;99.90
6788;DHT22;3431;47.966;10.268;2023-05-19T00:09:40;9.10;99.90
6788;DHT22;3431;47.966;10.268;2023-05-19T00:10:04;9.10;99.90
6788;DHT22;3431;47.966;10.268;2023-05-19T00:10:26;9.10;99.90
6788;DHT22;3431;47.966;10.268;2023-05-19T00:10:51;9.10;99.90
6788;DHT22;3431;47.966;10.268;2023-05-19T00:11:13;9.10;99.90
6788;DHT22;3431;47.966;10.268;2023-05-19T00:11:37;9.10;99.90
6788;DHT22;3431;47.966;10.268;2023-05-19T00:12:00;9.10;99.90
6788;DHT22;3431;47.966;10.268;2023-05-19T00:12:22;9.10;99.90
6788;DHT22;3431;47.966;10.268;2023-05-19T00:12:44;9.10;99.90
6788;DHT22;3431;47.966;10.268;2023-05-19T00:13:06;9.10;99.90
6788;DHT22;3431;47.966;10.268;2023-05-19T00:13:30;9.10;99.90
6788;DHT22;3431;47.966;10.268;2023-05-19T00:13:53;9.10;99.90
6788;DHT22;3431;47.966;10.268;2023-05-19T00:14:15;9.10;99.90
6788;DHT22;3431;47.966;10.268;2023-05-19T00:14:37;9.10;99.90
6788;DHT22;3431;47.966;10.268;2023-05-19T00:14:59;9.10;99.90
6788;DHT22;3431;47.966;10.268;2023-05-19T00:15:22;9.10;99.90
6788;DHT22;3431;47.966;10.268;2023-05-19T00:15:44;9.10;99.90
6788;DHT22;3431;47.966;10.268;2023-05-19T00:16:07;9.10;99.90
6788;DHT22;3431;47.966;10.268;2023-05-19T00:16:29;9.00;99.90
6788;DHT22;3431;47.966;10.268;2023-05-19T00:16:51;9.10;99.90
6788;DHT22;3431;47.966;10.268;2023-05-19T00:17:16;9.00;99.90
6788;DHT22;3431;47.966;10.268;2023-05-19T00:17:38;9.00;99.90
6788;DHT22;3431;47.966;10.268;2023-05-19T00:18:02;9.00;99.90
6788;DHT22;3431;47.966;10.268;2023-05-19T00:18:24;9.00;99.90
6788;DHT22;3431;47.966;10.268;2023-05-19T00:18:46;9.00;99.90
6788;DHT22;3431;47.966;10.268;2023-05-19T00:19:08;9.00;99.90
6788;DHT22;3431;47.966;10.268;2023-05-19T00:19:30;9.00;99.90
6788;DHT22;3431;47.966;10.268;2023-05-19T00:19:52;9.00;99.90
6788;DHT22;3431;47.966;10.268;2023-05-19T00:20:15;9.00;99.90
6788;DHT22;3431;47.966;10.268;2023-05-19T00:20:36;8.90;99.90
6788;DHT22;3431;47.966;10.268;2023-05-19T00:20:58;9.00;99.90
6788;DHT22;3431;47.966;10.268;2023-05-19T00:21:20;9.00;99.90
6788;DHT22;3431;47.966;10.268;2023-05-19T00:21:41;9.00;99.90
6788;DHT22;3431;47.966;10.268;2023-05-19T00:22:04;9.00;99.90
6788;DHT22;3431;47.966;10.268;2023-05-19T00:22:25;9.00;99.90
6788;DHT22;3431;47.966;10.268;2023-05-19T00:22:48;8.90;99.90
6788;DHT22;3431;47.966;10.268;2023-05-19T00:23:11;9.00;99.90
6788;DHT22;3431;47.966;10.268;2023-05-19T00:23:34;8.90;99.90
6788;DHT22;3431;47.966;10.268;2023-05-19T00:23:56;8.90;99.90
6788;DHT22;3431;47.966;10.268;2023-05-19T00:24:18;8.90;99.90
6788;DHT22;3431;47.966;10.268;2023-05-19T00:24:39;8.90;99.90
6788;DHT22;3431;47.966;10.268;2023-05-19T00:25:02;8.90;99.90
6788;DHT22;3431;47.966;10.268;2023-05-19T00:25:24;8.90;99.90
6788;DHT22;3431;47.966;10.268;2023-05-19T00:25:46;8.90;99.90
6788;DHT22;3431;47.966;10.268;2023-05-19T00:26:07;8.90;99.90
6788;DHT22;3431;47.966;10.268;2023-05-19T00:26:30;8.90;99.90
6788;DHT22;3431;47.966;10.268;2023-05-19T00:26:58;8.90;99.90
6788;DHT22;3431;47.966;10.268;2023-05-19T00:27:20;8.90;99.90
6788;DHT22;3431;47.966;10.268;2023-05-19T00:27:42;8.80;99.90
6788;DHT22;3431;47.966;10.268;2023-05-19T00:28:04;8.90;99.90
6788;DHT22;3431;47.966;10.268;2023-05-19T00:28:25;8.80;99.90
6788;DHT22;3431;47.966;10.268;2023-05-19T00:28:48;10.00;99.90
6788;DHT22;3431;47.966;10.268;2023-05-19T00:29:10;8.80;99.90
6788;DHT22;3431;47.966;10.268;2023-05-19T00:29:33;8.90;99.90
6788;DHT22;3431;47.966;10.268;2023-05-19T00:29:55;8.80;99.90
6788;DHT22;3431;47.966;10.268;2023-05-19T00:30:16;8.80;99.90
6788;DHT22;3431;47.966;10.268;2023-05-19T00:30:38;8.90;99.90
6788;DHT22;3431;47.966;10.268;2023-05-19T00:30:59;8.90;99.90
6788;DHT22;3431;47.966;10.268;2023-05-19T00:31:22;8.90;99.90
6788;DHT22;3431;47.966;10.268;2023-05-19T00:31:44;8.90;99.90
6788;DHT22;3431;47.966;10.268;2023-05-19T00:32:05;8.90;99.90
6788;DHT22;3431;47.966;10.268;2023-05-19T00:32:27;8.90;99.90
6788;DHT22;3431;47.966;10.268;2023-05-19T00:32:50;8.90;99.90
6788;DHT22;3431;47.966;10.268;2023-05-19T00:33:12;8.90;99.90
6788;DHT22;3431;47.966;10.268;2023-05-19T00:33:34;8.90;99.90
6788;DHT22;3431;47.966;10.268;2023-05-19T00:33:56;8.90;99.90
6788;DHT22;3431;47.966;10.268;2023-05-19T00:34:17;8.90;99.90
6788;DHT22;3431;47.966;10.268;2023-05-19T00:34:40;8.90;99.90
6788;DHT22;3431;47.966;10.268;2023-05-19T00:35:02;8.90;99.90
6788;DHT22;3431;47.966;10.268;2023-05-19T00:35:24;8.90;99.90
6788;DHT22;3431;47.966;10.268;2023-05-19T00:35:45;8.90;99.90
6788;DHT22;3431;47.966;10.268;2023-05-19T00:36:07;8.90;99.90
6788;DHT22;3431;47.966;10.268;2023-05-19T00:36:30;8.90;99.90
6788;DHT22;3431;47.966;10.268;2023-05-19T00:36:52;8.90;99.90
6788;DHT22;3431;47.966;10.268;2023-05-19T00:37:13;8.80;99.90
6788;DHT22;3431;47.966;10.268;2023-05-19T00:37:35;8.90;99.90
6788;DHT22;3431;47.966;10.268;2023-05-19T00:37:57;8.90;99.90
6788;DHT22;3431;47.966;10.268;2023-05-19T00:38:19;8.90;99.90
6788;DHT22;3431;47.966;10.268;2023-05-19T00:38:40;8.90;99.90
6788;DHT22;3431;47.966;10.268;2023-05-19T00:39:02;8.90;99.90
6788;DHT22;3431;47.966;10.268;2023-05-19T00:39:24;8.80;99.90
6788;DHT22;3431;47.966;10.268;2023-05-19T00:39:46;8.80;99.90
6788;DHT22;3431;47.966;10.268;2023-05-19T00:40:09;8.80;99.90
6788;DHT22;3431;47.966;10.268;2023-05-19T00:40:31;8.90;99.90
6788;DHT22;3431;47.966;10.268;2023-05-19T00:40:54;8.90;99.90
6788;DHT22;3431;47.966;10.268;2023-05-19T00:41:16;8.80;99.90
6788;DHT22;3431;47.966;10.268;2023-05-19T00:41:38;8.90;99.90
6788;DHT22;3431;47.966;10.268;2023-05-19T00:42:00;8.80;99.90
6788;DHT22;3431;47.966;10.268;2023-05-19T00:42:22;8.90;99.90
6788;DHT22;3431;47.966;10.268;2023-05-19T00:42:44;8.80;99.90
6788;DHT22;3431;47.966;10.268;2023-05-19T00:43:07;8.80;99.90
6788;DHT22;3431;47.966;10.268;2023-05-19T00:43:28;8.90;99.90
6788;DHT22;3431;47.966;10.268;2023-05-19T00:43:51;8.80;99.90
6788;DHT22;3431;47.966;10.268;2023-05-19T00:44:13;8.80;99.90
6788;DHT22;3431;47.966;10.268;2023-05-19T00:44:39;8.80;99.90
6788;DHT22;3431;47.966;10.268;2023-05-19T00:45:01;8.80;99.90
6788;DHT22;3431;47.966;10.268;2023-05-19T00:45:23;8.80;99.90
6788;DHT22;3431;47.966;10.268;2023-05-19T00:45:45;8.80;99.90
6788;DHT22;3431;47.966;10.268;2023-05-19T00:46:07;8.80;99.90
6788;DHT22;3431;47.966;10.268;2023-05-19T00:46:31;8.80;99.90
6788;DHT22;3431;47.966;10.268;2023-05-19T00:46:52;8.80;99.90
6788;DHT22;3431;47.966;10.268;2023-05-19T00:47:14;8.80;99.90
6788;DHT22;3431;47.966;10.268;2023-05-19T00:47:36;8.80;99.90
6788;DHT22;3431;47.966;10.268;2023-05-19T00:47:59;8.80;99.90
6788;DHT22;3431;47.966;10.268;2023-05-19T00:48:20;8.80;99.90
6788;DHT22;3431;47.966;10.268;2023-05-19T00:48:42;8.80;99.90
6788;DHT22;3431;47.966;10.268;2023-05-19T00:49:04;8.80;99.90
6788;DHT22;3431;47.966;10.268;2023-05-19T00:49:27;8.80;99.90
6788;DHT22;3431;47.966;10.268;2023-05-19T00:49:48;8.80;99.90
6788;DHT22;3431;47.966;10.268;2023-05-19T00:50:10;8.80;99.90
6788;DHT22;3431;47.966;10.268;2023-05-19T00:50:32;8.80;99.90
6788;DHT22;3431;47.966;10.268;2023-05-19T00:50:54;8.80;99.90
6788;DHT22;3431;47.966;10.268;2023-05-19T00:51:23;8.70;99.90
6788;DHT22;3431;47.966;10.268;2023-05-19T00:51:46;8.70;99.90
6788;DHT22;3431;47.966;10.268;2023-05-19T00:52:08;8.70;99.90
6788;DHT22;3431;47.966;10.268;2023-05-19T00:52:30;8.80;99.90
6788;DHT22;3431;47.966;10.268;2023-05-19T00:52:53;8.70;99.90
6788;DHT22;3431;47.966;10.268;2023-05-19T00:53:16;8.70;99.90
6788;DHT22;3431;47.966;10.268;2023-05-19T00:53:38;8.70;99.90
6788;DHT22;3431;47.966;10.268;2023-05-19T00:54:00;8.70;99.90
6788;DHT22;3431;47.966;10.268;2023-05-19T00:54:23;8.70;99.90
6788;DHT22;3431;47.966;10.268;2023-05-19T00:54:44;8.80;99.90
6788;DHT22;3431;47.966;10.268;2023-05-19T00:55:07;8.70;99.90
6788;DHT22;3431;47.966;10.268;2023-05-19T00:55:30;8.80;99.90
6788;DHT22;3431;47.966;10.268;2023-05-19T00:55:54;8.80;99.90
6788;DHT22;3431;47.966;10.268;2023-05-19T00:56:17;8.80;99.90
6788;DHT22;3431;47.966;10.268;2023-05-19T00:56:39;8.80;99.90
6788;DHT22;3431;47.966;10.268;2023-05-19T00:57:01;8.80;99.90
6788;DHT22;3431;47.966;10.268;2023-05-19T00:57:24;8.80;99.90
6788;DHT22;3431;47.966;10.268;2023-05-19T00:57:47;8.80;99.90
6788;DHT22;3431;47.966;10.268;2023-05-19T00:58:11;8.80;99.90
6788;DHT22;3431;47.966;10.268;2023-05-19T00:58:33;8.80;99.90
6788;DHT22;3431;47.966;10.268;2023-05-19T00:58:59;8.80;99.90
6788;DHT22;3431;47.966;10.268;2023-05-19T00:59:21;8.80;99.90
6788;DHT22;3431;47.966;10.268;2023-05-19T00:59:43;8.80;99.90
6788;DHT22;3431;47.966;10.268;2023-05-19T01:00:06;8.80;99.90
6788;DHT22;3431;47.966;10.268;2023-05-19T01:00:29;8.70;99.90
6788;DHT22;3431;47.966;10.268;2023-05-19T01:00:50;8.70;99.90
6788;DHT22;3431;47.966;10.268;2023-05-19T01:01:13;8.70;99.90
6788;DHT22;3431;47.966;10.268;2023-05-19T01:01:37;8.80;99.90
6788;DHT22;3431;47.966;10.268;2023-05-19T01:02:00;8.70;99.90
6788;DHT22;3431;47.966;10.268;2023-05-19T01:02:23;8.80;99.90
6788;DHT22;3431;47.966;10.268;2023-05-19T01:02:44;8.80;99.90
6788;DHT22;3431;47.966;10.268;2023-05-19T01:03:06;8.70;99.90
6788;DHT22;3431;47.966;10.268;2023-05-19T01:03:32;8.70;99.90
6788;DHT22;3431;47.966;10.268;2023-05-19T01:03:56;8.70;99.90
6788;DHT22;3431;47.966;10.268;2023-05-19T01:04:19;8.70;99.90
6788;DHT22;3431;47.966;10.268;2023-05-19T01:04:42;8.70;99.90
6788;DHT22;3431;47.966;10.268;2023-05-19T01:05:05;8.70;99.90
6788;DHT22;3431;47.966;10.268;2023-05-19T01:05:28;8.70;99.90
6788;DHT22;3431;47.966;10.268;2023-05-19T01:05:50;8.70;99.90
6788;DHT22;3431;47.966;10.268;2023-05-19T01:06:13;8.70;99.90
6788;DHT22;3431;47.966;10.268;2023-05-19T01:06:35;8.70;99.90
6788;DHT22;3431;47.966;10.268;2023-05-19T01:06:58;8.70;99.90
6788;DHT22;3431;47.966;10.268;2023-05-19T01:07:20;8.70;99.90
6788;DHT22;3431;47.966;10.268;2023-05-19T01:07:42;8.70;99.90
6788;DHT22;3431;47.966;10.268;2023-05-19T01:08:05;8.70;99.90
6788;DHT22;3431;47.966;10.268;2023-05-19T01:08:27;8.70;99.90
6788;DHT22;3431;47.966;10.268;2023-05-19T01:08:53;8.70;99.90
6788;DHT22;3431;47.966;10.268;2023-05-19T01:09:14;8.70;99.90
6788;DHT22;3431;47.966;10.268;2023-05-19T01:09:36;8.70;99.90
6788;DHT22;3431;47.966;10.268;2023-05-19T01:09:58;8.70;99.90
6788;DHT22;3431;47.966;10.268;2023-05-19T01:10:21;8.70;99.90
6788;DHT22;3431;47.966;10.268;2023-05-19T01:10:42;8.70;99.90
6788;DHT22;3431;47.966;10.268;2023-05-19T01:11:04;8.70;99.90
6788;DHT22;3431;47.966;10.268;2023-05-19T01:11:26;8.70;99.90
6788;DHT22;3431;47.966;10.268;2023-05-19T01:11:48;8.70;99.90
6788;DHT22;3431;47.966;10.268;2023-05-19T01:12:11;8.70;99.90
6788;DHT22;3431;47.966;10.268;2023-05-19T01:12:33;8.70;99.90
6788;DHT22;3431;47.966;10.268;2023-05-19T01:12:56;8.80;99.90
6788;DHT22;3431;47.966;10.268;2023-05-19T01:13:18;8.80;99.90
6788;DHT22;3431;47.966;10.268;2023-05-19T01:13:40;8.80;99.90
6788;DHT22;3431;47.966;10.268;2023-05-19T01:14:04;8.80;99.90
6788;DHT22;3431;47.966;10.268;2023-05-19T01:14:27;8.70;99.90
6788;DHT22;3431;47.966;10.268;2023-05-19T01:14:50;8.80;99.90
6788;DHT22;3431;47.966;10.268;2023-05-19T01:15:11;8.80;99.90
6788;DHT22;3431;47.966;10.268;2023-05-19T01:15:43;8.70;99.90
6788;DHT22;3431;47.966;10.268;2023-05-19T01:16:15;8.70;99.90
6788;DHT22;3431;47.966;10.268;2023-05-19T01:16:41;8.80;99.90
6788;DHT22;3431;47.966;10.268;2023-05-19T01:17:08;8.80;99.90
6788;DHT22;3431;47.966;10.268;2023-05-19T01:17:40;8.80;99.90
6788;DHT22;3431;47.966;10.268;2023-05-19T01:18:07;8.80;99.90
6788;DHT22;3431;47.966;10.268;2023-05-19T01:18:43;8.80;99.90
6788;DHT22;3431;47.966;10.268;2023-05-19T01:19:17;8.80;99.90
6788;DHT22;3431;47.966;10.268;2023-05-19T01:19:55;8.80;99.90
6788;DHT22;3431;47.966;10.268;2023-05-19T01:20:21;8.80;99.90
6788;DHT22;3431;47.966;10.268;2023-05-19T01:20:51;8.80;99.90
6788;DHT22;3431;47.966;10.268;2023-05-19T01:21:38;8.80;99.90
6788;DHT22;3431;47.966;10.268;2023-05-19T01:22:37;8.80;99.90
6788;DHT22;3431;47.966;10.268;2023-05-19T01:23:19;8.80;99.90
6788;DHT22;3431;47.966;10.268;2023-05-19T01:23:50;8.70;99.90
6788;DHT22;3431;47.966;10.268;2023-05-19T01:24:38;8.70;99.90
6788;DHT22;3431;47.966;10.268;2023-05-19T01:25:31;8.70;99.90
6788;DHT22;3431;47.966;10.268;2023-05-19T01:26:29;8.70;99.90
6788;DHT22;3431;47.966;10.268;2023-05-19T01:27:13;8.70;99.90
6788;DHT22;3431;47.966;10.268;2023-05-19T01:27:46;8.70;99.90
6788;DHT22;3431;47.966;10.268;2023-05-19T01:28:42;8.60;99.90
6788;DHT22;3431;47.966;10.268;2023-05-19T01:29:40;8.60;99.90
6788;DHT22;3431;47.966;10.268;2023-05-19T01:30:17;8.60;99.90
6788;DHT22;3431;47.966;10.268;2023-05-19T01:30:44;8.60;99.90
6788;DHT22;3431;47.966;10.268;2023-05-19T01:31:11;8.50;99.90
6788;DHT22;3431;47.966;10.268;2023-05-19T01:31:34;8.60;99.90
6788;DHT22;3431;47.966;10.268;2023-05-19T01:31:59;8.60;99.90
6788;DHT22;3431;47.966;10.268;2023-05-19T01:32:22;8.50;99.90
6788;DHT22;3431;47.966;10.268;2023-05-19T01:32:47;8.50;99.90
6788;DHT22;3431;47.966;10.268;2023-05-19T01:33:11;8.60;99.90
6788;DHT22;3431;47.966;10.268;2023-05-19T01:33:35;8.50;99.90
6788;DHT22;3431;47.966;10.268;2023-05-19T01:33:59;8.50;99.90
6788;DHT22;3431;47.966;10.268;2023-05-19T01:34:22;8.50;99.90
6788;DHT22;3431;47.966;10.268;2023-05-19T01:34:48;8.50;99.90
6788;DHT22;3431;47.966;10.268;2023-05-19T01:35:11;8.50;99.90
6788;DHT22;3431;47.966;10.268;2023-05-19T01:35:37;8.50;99.90
6788;DHT22;3431;47.966;10.268;2023-05-19T01:35:59;8.50;99.90
6788;DHT22;3431;47.966;10.268;2023-05-19T01:36:25;8.50;99.90
6788;DHT22;3431;47.966;10.268;2023-05-19T01:36:48;8.40;99.90
6788;DHT22;3431;47.966;10.268;2023-05-19T01:37:14;8.50;99.90
6788;DHT22;3431;47.966;10.268;2023-05-19T01:37:38;8.40;99.90
6788;DHT22;3431;47.966;10.268;2023-05-19T01:38:00;8.40;99.90
6788;DHT22;3431;47.966;10.268;2023-05-19T01:38:24;8.40;99.90
6788;DHT22;3431;47.966;10.268;2023-05-19T01:38:48;8.40;99.90
6788;DHT22;3431;47.966;10.268;2023-05-19T01:39:12;8.40;99.90
6788;DHT22;3431;47.966;10.268;2023-05-19T01:39:35;8.40;99.90
6788;DHT22;3431;47.966;10.268;2023-05-19T01:39:58;8.40;99.90
6788;DHT22;3431;47.966;10.268;2023-05-19T01:40:21;8.40;99.90
6788;DHT22;3431;47.966;10.268;2023-05-19T01:40:46;8.40;99.90
6788;DHT22;3431;47.966;10.268;2023-05-19T01:41:10;8.40;99.90
6788;DHT22;3431;47.966;10.268;2023-05-19T01:41:33;8.30;99.90
6788;DHT22;3431;47.966;10.268;2023-05-19T01:41:57;8.40;99.90
6788;DHT22;3431;47.966;10.268;2023-05-19T01:42:19;8.40;99.90
6788;DHT22;3431;47.966;10.268;2023-05-19T01:42:44;8.30;99.90
6788;DHT22;3431;47.966;10.268;2023-05-19T01:43:08;8.30;99.90
6788;DHT22;3431;47.966;10.268;2023-05-19T01:43:30;8.30;99.90
6788;DHT22;3431;47.966;10.268;2023-05-19T01:43:53;8.30;99.90
6788;DHT22;3431;47.966;10.268;2023-05-19T01:44:14;8.30;99.90
6788;DHT22;3431;47.966;10.268;2023-05-19T01:44:39;8.30;99.90
6788;DHT22;3431;47.966;10.268;2023-05-19T01:45:00;8.30;99.90
6788;DHT22;3431;47.966;10.268;2023-05-19T01:45:24;8.30;99.90
6788;DHT22;3431;47.966;10.268;2023-05-19T01:45:47;8.30;99.90
6788;DHT22;3431;47.966;10.268;2023-05-19T01:46:09;8.30;99.90
6788;DHT22;3431;47.966;10.268;2023-05-19T01:46:30;8.30;99.90
6788;DHT22;3431;47.966;10.268;2023-05-19T01:46:53;8.30;99.90
6788;DHT22;3431;47.966;10.268;2023-05-19T01:47:15;8.30;99.90
6788;DHT22;3431;47.966;10.268;2023-05-19T01:47:40;8.30;99.90
6788;DHT22;3431;47.966;10.268;2023-05-19T01:48:03;8.30;99.90
6788;DHT22;3431;47.966;10.268;2023-05-19T01:48:26;8.30;99.90
6788;DHT22;3431;47.966;10.268;2023-05-19T01:48:49;8.30;99.90
6788;DHT22;3431;47.966;10.268;2023-05-19T01:49:11;8.30;99.90
6788;DHT22;3431;47.966;10.268;2023-05-19T01:49:33;8.30;99.90
6788;DHT22;3431;47.966;10.268;2023-05-19T01:49:55;8.30;99.90
6788;DHT22;3431;47.966;10.268;2023-05-19T01:50:18;8.30;99.90
6788;DHT22;3431;47.966;10.268;2023-05-19T01:50:40;8.30;99.90
6788;DHT22;3431;47.966;10.268;2023-05-19T01:51:02;8.30;99.90
6788;DHT22;3431;47.966;10.268;2023-05-19T01:51:24;8.30;99.90
6788;DHT22;3431;47.966;10.268;2023-05-19T01:51:48;8.30;99.90
6788;DHT22;3431;47.966;10.268;2023-05-19T01:52:10;8.30;99.90
6788;DHT22;3431;47.966;10.268;2023-05-19T01:52:33;8.30;99.90
6788;DHT22;3431;47.966;10.268;2023-05-19T01:52:54;8.30;99.90
6788;DHT22;3431;47.966;10.268;2023-05-19T01:53:16;8.30;99.90
6788;DHT22;3431;47.966;10.268;2023-05-19T01:53:38;8.30;99.90
6788;DHT22;3431;47.966;10.268;2023-05-19T01:54:01;8.30;99.90
6788;DHT22;3431;47.966;10.268;2023-05-19T01:54:22;8.30;99.90
6788;DHT22;3431;47.966;10.268;2023-05-19T01:54:44;8.30;99.90
6788;DHT22;3431;47.966;10.268;2023-05-19T01:55:07;8.30;99.90
6788;DHT22;3431;47.966;10.268;2023-05-19T01:55:29;8.30;99.90
6788;DHT22;3431;47.966;10.268;2023-05-19T01:55:54;8.30;99.90
6788;DHT22;3431;47.966;10.268;2023-05-19T01:56:19;8.30;99.90
6788;DHT22;3431;47.966;10.268;2023-05-19T01:56:48;8.30;99.90
6788;DHT22;3431;47.966;10.268;2023-05-19T01:57:17;8.30;99.90
6788;DHT22;3431;47.966;10.268;2023-05-19T01:57:49;8.30;99.90
6788;DHT22;3431;47.966;10.268;2023-05-19T01:58:20;8.30;99.90
6788;DHT22;3431;47.966;10.268;2023-05-19T01:58:45;8.30;99.90
6788;DHT22;3431;47.966;10.268;2023-05-19T01:59:17;8.30;99.90
6788;DHT22;3431;47.966;10.268;2023-05-19T01:59:47;8.30;99.90
6788;DHT22;3431;47.966;10.268;2023-05-19T02:00:18;8.40;99.90
6788;DHT22;3431;47.966;10.268;2023-05-19T02:00:51;8.40;99.90
6788;DHT22;3431;47.966;10.268;2023-05-19T02:01:20;8.40;99.90
6788;DHT22;3431;47.966;10.268;2023-05-19T02:01:51;8.40;99.90
6788;DHT22;3431;47.966;10.268;2023-05-19T02:02:22;8.40;99.90
6788;DHT22;3431;47.966;10.268;2023-05-19T02:02:54;8.40;99.90
6788;DHT22;3431;47.966;10.268;2023-05-19T02:03:30;8.30;99.90
6788;DHT22;3431;47.966;10.268;2023-05-19T02:04:04;8.40;99.90
6788;DHT22;3431;47.966;10.268;2023-05-19T02:04:37;8.40;99.90
6788;DHT22;3431;47.966;10.268;2023-05-19T02:05:08;8.40;99.90
6788;DHT22;3431;47.966;10.268;2023-05-19T02:05:37;8.40;99.90
6788;DHT22;3431;47.966;10.268;2023-05-19T02:06:10;8.40;99.90
6788;DHT22;3431;47.966;10.268;2023-05-19T02:06:41;8.40;99.90
6788;DHT22;3431;47.966;10.268;2023-05-19T02:07:12;8.40;99.90
6788;DHT22;3431;47.966;10.268;2023-05-19T02:07:41;8.40;99.90
6788;DHT22;3431;47.966;10.268;2023-05-19T02:08:10;8.40;99.90
6788;DHT22;3431;47.966;10.268;2023-05-19T02:08:37;8.40;99.90
6788;DHT22;3431;47.966;10.268;2023-05-19T02:09:06;8.40;99.90
6788;DHT22;3431;47.966;10.268;2023-05-19T02:09:36;8.40;99.90
6788;DHT22;3431;47.966;10.268;2023-05-19T02:10:04;8.30;99.90
6788;DHT22;3431;47.966;10.268;2023-05-19T02:10:28;8.40;99.90
6788;DHT22;3431;47.966;10.268;2023-05-19T02:10:56;8.40;99.90
6788;DHT22;3431;47.966;10.268;2023-05-19T02:11:24;8.40;99.90
6788;DHT22;3431;47.966;10.268;2023-05-19T02:11:52;8.30;99.90
6788;DHT22;3431;47.966;10.268;2023-05-19T02:12:19;8.40;99.90
6788;DHT22;3431;47.966;10.268;2023-05-19T02:12:45;8.40;99.90
6788;DHT22;3431;47.966;10.268;2023-05-19T02:13:09;8.30;99.90
6788;DHT22;3431;47.966;10.268;2023-05-19T02:13:36;8.30;99.90
6788;DHT22;3431;47.966;10.268;2023-05-19T02:14:02;8.30;99.90
6788;DHT22;3431;47.966;10.268;2023-05-19T02:14:28;8.30;99.90
6788;DHT22;3431;47.966;10.268;2023-05-19T02:14:56;8.30;99.90
6788;DHT22;3431;47.966;10.268;2023-05-19T02:15:21;8.30;99.90
6788;DHT22;3431;47.966;10.268;2023-05-19T02:15:47;8.30;99.90
6788;DHT22;3431;47.966;10.268;2023-05-19T02:16:10;8.30;99.90
6788;DHT22;3431;47.966;10.268;2023-05-19T02:16:35;8.30;99.90
6788;DHT22;3431;47.966;10.268;2023-05-19T02:16:58;8.30;99.90
6788;DHT22;3431;47.966;10.268;2023-05-19T02:17:22;8.30;99.90
6788;DHT22;3431;47.966;10.268;2023-05-19T02:17:47;8.30;99.90
6788;DHT22;3431;47.966;10.268;2023-05-19T02:18:13;8.30;99.90
6788;DHT22;3431;47.966;10.268;2023-05-19T02:18:39;8.30;99.90
6788;DHT22;3431;47.966;10.268;2023-05-19T02:19:01;8.30;99.90
6788;DHT22;3431;47.966;10.268;2023-05-19T02:19:25;8.30;99.90
6788;DHT22;3431;47.966;10.268;2023-05-19T02:19:49;8.30;99.90
6788;DHT22;3431;47.966;10.268;2023-05-19T02:20:11;8.30;99.90
6788;DHT22;3431;47.966;10.268;2023-05-19T02:20:33;8.30;99.90
6788;DHT22;3431;47.966;10.268;2023-05-19T02:20:55;8.40;99.90
6788;DHT22;3431;47.966;10.268;2023-05-19T02:21:18;8.30;99.90
6788;DHT22;3431;47.966;10.268;2023-05-19T02:21:40;8.40;99.90
6788;DHT22;3431;47.966;10.268;2023-05-19T02:22:02;8.40;99.90
6788;DHT22;3431;47.966;10.268;2023-05-19T02:22:23;8.40;99.90
6788;DHT22;3431;47.966;10.268;2023-05-19T02:22:46;8.40;99.90
6788;DHT22;3431;47.966;10.268;2023-05-19T02:23:07;8.40;99.90
6788;DHT22;3431;47.966;10.268;2023-05-19T02:23:29;8.40;99.90
6788;DHT22;3431;47.966;10.268;2023-05-19T02:23:52;8.40;99.90
6788;DHT22;3431;47.966;10.268;2023-05-19T02:24:14;8.40;99.90
6788;DHT22;3431;47.966;10.268;2023-05-19T02:24:37;8.40;99.90
6788;DHT22;3431;47.966;10.268;2023-05-19T02:24:59;8.40;99.90
6788;DHT22;3431;47.966;10.268;2023-05-19T02:25:21;8.50;99.90
6788;DHT22;3431;47.966;10.268;2023-05-19T02:25:43;8.50;99.90
6788;DHT22;3431;47.966;10.268;2023-05-19T02:26:06;8.50;99.90
6788;DHT22;3431;47.966;10.268;2023-05-19T02:26:28;8.40;99.90
6788;DHT22;3431;47.966;10.268;2023-05-19T02:26:52;8.50;99.90
6788;DHT22;3431;47.966;10.268;2023-05-19T02:27:13;8.50;99.90
6788;DHT22;3431;47.966;10.268;2023-05-19T02:27:38;8.50;99.90
6788;DHT22;3431;47.966;10.268;2023-05-19T02:27:59;8.50;99.90
6788;DHT22;3431;47.966;10.268;2023-05-19T02:28:24;8.50;99.90
6788;DHT22;3431;47.966;10.268;2023-05-19T02:28:48;8.50;99.90
6788;DHT22;3431;47.966;10.268;2023-05-19T02:29:12;8.50;99.90
6788;DHT22;3431;47.966;10.268;2023-05-19T02:29:34;8.50;99.90
6788;DHT22;3431;47.966;10.268;2023-05-19T02:29:55;8.40;99.90
6788;DHT22;3431;47.966;10.268;2023-05-19T02:30:17;8.40;99.90
6788;DHT22;3431;47.966;10.268;2023-05-19T02:30:40;8.40;99.90
6788;DHT22;3431;47.966;10.268;2023-05-19T02:31:03;8.40;99.90
6788;DHT22;3431;47.966;10.268;2023-05-19T02:31:25;8.40;99.90
6788;DHT22;3431;47.966;10.268;2023-05-19T02:31:47;8.40;99.90
6788;DHT22;3431;47.966;10.268;2023-05-19T02:32:10;8.40;99.90
6788;DHT22;3431;47.966;10.268;2023-05-19T02:32:32;8.40;99.90
6788;DHT22;3431;47.966;10.268;2023-05-19T02:32:53;8.40;99.90
6788;DHT22;3431;47.966;10.268;2023-05-19T02:33:15;8.40;99.90
6788;DHT22;3431;47.966;10.268;2023-05-19T02:33:39;8.30;99.90
6788;DHT22;3431;47.966;10.268;2023-05-19T02:34:02;8.30;99.90
6788;DHT22;3431;47.966;10.268;2023-05-19T02:34:24;8.30;99.90
6788;DHT22;3431;47.966;10.268;2023-05-19T02:34:46;8.30;99.90
6788;DHT22;3431;47.966;10.268;2023-05-19T02:35:08;8.30;99.90
6788;DHT22;3431;47.966;10.268;2023-05-19T02:35:30;8.30;99.90
6788;DHT22;3431;47.966;10.268;2023-05-19T02:35:52;8.30;99.90
6788;DHT22;3431;47.966;10.268;2023-05-19T02:36:13;8.40;99.90
6788;DHT22;3431;47.966;10.268;2023-05-19T02:36:35;8.40;99.90
6788;DHT22;3431;47.966;10.268;2023-05-19T02:36:57;8.40;99.90
6788;DHT22;3431;47.966;10.268;2023-05-19T02:37:20;8.30;99.90
6788;DHT22;3431;47.966;10.268;2023-05-19T02:37:44;8.30;99.90
6788;DHT22;3431;47.966;10.268;2023-05-19T02:38:05;8.30;99.90
6788;DHT22;3431;47.966;10.268;2023-05-19T02:38:27;8.30;99.90
6788;DHT22;3431;47.966;10.268;2023-05-19T02:38:49;8.30;99.90
6788;DHT22;3431;47.966;10.268;2023-05-19T02:39:11;8.30;99.90